Archival Weather

Norman Y Mineta San Jose Intl

San Jose, California (KSJC)

Report from: Saturday, February 10, 2024 1:53 PM PST
Current time: Friday, June 14, 2024 5:26 AM PDT

Current weather – Weather history – Daily summaries
Weather forecast

Temperature17.2°C (63.0°F)
Dew point1.1°C (34.0°F)
Winds 4 kts (2.1 m/s, 4.6 mph) North (350°)
Visibility10 mi. (16.1 km)
Clouds Sky clear
Altimeter30.12 in.Hg (1020 mB)
Relative humidity34 %
Density altitude144 ft. (44 m)
Sea-level pressure102.0 kPa (1020 mB, 30.11 in.Hg)
Remarks Automated weather observing station with precipitation discriminator
Flight conditions Visual Meteorological Conditions
Raw dataKSJC 102153Z 35004KT 10SM CLR 17/01 A3012 RMK AO2 SLP197 T01720011
An error has occurred. This application may no longer respond until reloaded. Reload 🗙